Time;durP1;ratioP1;P1;durP2;ratioP2;P2;SDS_P1;SDS_P2;PMS_P1;PMS_P2;Temp;Humidity;BMP_temperature;BMP_pressure;BME280_temperature;BME280_humidity;BME280_pressure;Samples;Min_cycle;Max_cycle;Signal;HPM_P1;HPM_P2
2021/04/09 00:00:42;;;;;;;10.48;5.53;;;;;;;-2.43;80.15;95959.53;5004661;28;20533;-65
2021/04/09 00:03:13;;;;;;;8.77;4.88;;;;;;;-2.29;80.45;95963.09;4987106;28;20050;-65
2021/04/09 00:05:40;;;;;;;8.80;5.07;;;;;;;-2.35;80.17;95954.28;4988956;28;20569;-65
2021/04/09 00:08:06;;;;;;;9.18;5.18;;;;;;;-2.30;80.64;95952.00;4990177;28;20117;-64
2021/04/09 00:10:31;;;;;;;9.25;5.00;;;;;;;-2.35;79.60;95950.94;4992513;28;20093;-65
2021/04/09 00:12:57;;;;;;;10.75;5.38;;;;;;;-2.30;80.27;95946.84;4990082;28;20046;-65
2021/04/09 00:15:23;;;;;;;9.73;5.07;;;;;;;-2.35;79.76;95943.19;4990153;28;20085;-65
2021/04/09 00:17:49;;;;;;;9.85;5.07;;;;;;;-2.43;80.96;95941.47;4993284;28;20042;-65
2021/04/09 00:20:19;;;;;;;6.90;4.45;;;;;;;-2.37;80.59;95940.78;4992885;28;20042;-65
2021/04/09 00:22:45;;;;;;;7.47;4.40;;;;;;;-2.31;81.14;95947.81;4992095;28;20920;-65
2021/04/09 00:25:12;;;;;;;8.25;4.97;;;;;;;-2.48;80.77;95943.81;4991130;28;20088;-65
2021/04/09 00:27:38;;;;;;;8.25;4.25;;;;;;;-2.46;81.10;95941.84;4993243;28;20053;-65
2021/04/09 00:30:05;;;;;;;9.00;4.78;;;;;;;-2.48;80.71;95933.50;4992046;28;20046;-65
2021/04/09 00:32:31;;;;;;;10.38;4.85;;;;;;;-2.49;80.61;95921.59;4992389;28;20511;-65
2021/04/09 00:34:56;;;;;;;10.32;5.10;;;;;;;-2.42;81.25;95927.63;5006664;28;20038;-65
2021/04/09 00:37:22;;;;;;;9.30;4.60;;;;;;;-2.36;81.16;95926.91;4993300;28;20034;-65
2021/04/09 00:39:47;;;;;;;7.55;4.53;;;;;;;-2.49;81.22;95931.88;4992266;28;20493;-64
2021/04/09 00:42:17;;;;;;;6.47;3.80;;;;;;;-2.40;80.66;95935.97;4988724;28;20054;-65
2021/04/09 00:44:44;;;;;;;8.70;4.43;;;;;;;-2.43;80.23;95936.31;4991908;28;20039;-65
2021/04/09 00:47:09;;;;;;;11.60;5.10;;;;;;;-2.44;82.11;95929.59;4989274;28;20109;-65
2021/04/09 00:49:35;;;;;;;8.68;4.28;;;;;;;-2.50;80.87;95930.28;4992627;28;20548;-65
2021/04/09 00:52:00;;;;;;;7.70;4.50;;;;;;;-2.47;81.33;95924.75;4992446;28;20050;-65
2021/04/09 00:54:26;;;;;;;9.85;4.38;;;;;;;-2.44;81.29;95919.28;4990843;28;20054;-64
2021/04/09 00:56:52;;;;;;;10.23;4.53;;;;;;;-2.58;80.62;95917.50;4992579;28;20405;-65
2021/04/09 00:59:18;;;;;;;6.47;3.83;;;;;;;-2.61;80.82;95913.50;4992389;28;20045;-65
2021/04/09 01:01:43;;;;;;;7.00;4.22;;;;;;;-2.58;81.65;95909.78;4987123;28;20039;-65
2021/04/09 01:04:09;;;;;;;8.57;4.68;;;;;;;-2.59;81.07;95908.16;4991140;28;20109;-65
2021/04/09 01:06:35;;;;;;;8.13;3.88;;;;;;;-2.58;80.43;95907.19;4992982;28;20046;-65
2021/04/09 01:09:02;;;;;;;6.45;3.88;;;;;;;-2.61;81.17;95906.56;5007698;28;20588;-65
2021/04/09 01:11:28;;;;;;;6.93;3.90;;;;;;;-2.61;80.96;95898.81;4991490;28;20540;-65
2021/04/09 01:13:53;;;;;;;7.10;4.40;;;;;;;-2.74;80.80;95896.06;4991254;28;20371;-65
2021/04/09 01:16:40;;;;;;;7.53;3.63;;;;;;;-2.59;80.91;95895.28;4990890;28;20050;-65
2021/04/09 01:19:46;;;;;;;7.22;4.00;;;;;;;-2.74;80.99;95898.63;4991629;28;20090;-65
2021/04/09 01:22:13;;;;;;;5.78;3.58;;;;;;;-2.69;80.54;95888.59;4990652;28;20042;-65
2021/04/09 01:25:09;;;;;;;7.03;3.78;;;;;;;-2.77;80.49;95893.84;4987848;28;20061;-64
2021/04/09 01:27:54;;;;;;;7.15;3.67;;;;;;;-2.70;80.45;95889.59;4989203;28;20042;-64
2021/04/09 01:30:36;;;;;;;5.97;3.60;;;;;;;-2.70;80.33;95884.44;4992428;28;20038;-64
2021/04/09 01:33:06;;;;;;;5.35;3.60;;;;;;;-2.56;80.21;95884.59;4991534;28;20042;-65
2021/04/09 01:35:33;;;;;;;7.25;3.70;;;;;;;-2.63;80.55;95880.16;4990507;28;20061;-64
2021/04/09 01:38:04;;;;;;;6.15;3.55;;;;;;;-2.59;80.07;95882.38;4990952;28;20038;-64
2021/04/09 01:40:33;;;;;;;5.60;3.05;;;;;;;-2.43;80.13;95874.47;4991650;28;20051;-65
2021/04/09 01:43:03;;;;;;;5.05;3.53;;;;;;;-2.56;80.80;95879.47;4990351;28;20046;-64
2021/04/09 01:45:31;;;;;;;5.45;3.22;;;;;;;-2.48;79.56;95881.94;4988320;28;20496;-64
2021/04/09 01:47:57;;;;;;;5.00;3.50;;;;;;;-2.55;80.40;95875.91;4991058;28;20042;-65
2021/04/09 01:50:25;;;;;;;6.63;3.47;;;;;;;-2.59;80.15;95879.81;4991626;28;20572;-64
2021/04/09 01:52:52;;;;;;;5.28;3.60;;;;;;;-2.80;80.36;95868.44;4990879;28;20046;-65
2021/04/09 01:55:19;;;;;;;5.28;3.28;;;;;;;-2.76;80.64;95872.25;4988839;28;20048;-64
2021/04/09 01:57:46;;;;;;;6.70;3.20;;;;;;;-2.66;81.13;95874.56;4991638;28;20043;-65
2021/04/09 02:00:19;;;;;;;5.43;3.42;;;;;;;-2.80;80.28;95863.28;4990738;28;20042;-64
2021/04/09 02:02:46;;;;;;;6.22;3.65;;;;;;;-2.79;80.32;95870.84;4987198;28;20066;-65
2021/04/09 02:05:17;;;;;;;6.53;3.92;;;;;;;-2.94;80.11;95866.63;5005957;28;20120;-64
2021/04/09 02:07:44;;;;;;;6.18;3.72;;;;;;;-2.99;81.20;95864.56;4991484;28;20124;-64
2021/04/09 02:10:11;;;;;;;5.03;3.53;;;;;;;-3.02;80.75;95860.56;4987191;28;20049;-65
2021/04/09 02:12:39;;;;;;;6.55;3.70;;;;;;;-3.01;82.12;95862.19;4988575;28;20081;-65
2021/04/09 02:15:10;;;;;;;6.70;4.00;;;;;;;-3.00;80.93;95858.63;4989322;28;20045;-65
2021/04/09 02:17:39;;;;;;;8.30;3.42;;;;;;;-3.00;80.91;95863.78;4991214;28;20077;-64
2021/04/09 02:20:17;;;;;;;4.97;3.17;;;;;;;-3.01;80.71;95856.25;4991529;28;20050;-65
2021/04/09 02:22:44;;;;;;;9.20;3.38;;;;;;;-3.06;81.91;95859.34;5004942;28;20484;-64
2021/04/09 02:25:11;;;;;;;10.15;3.22;;;;;;;-3.17;81.44;95857.19;4987309;28;20093;-64
2021/04/09 02:27:37;;;;;;;8.25;3.92;;;;;;;-3.16;81.43;95851.88;4991038;28;20503;-65
2021/04/09 02:30:08;;;;;;;8.43;3.40;;;;;;;-3.10;82.04;95842.63;4991163;28;20057;-64
2021/04/09 02:32:35;;;;;;;6.07;3.50;;;;;;;-3.19;81.43;95847.06;4989746;28;20042;-64
2021/04/09 02:35:00;;;;;;;5.72;3.40;;;;;;;-3.11;81.06;95841.03;4988467;28;20420;-64
2021/04/09 02:37:26;;;;;;;6.22;3.47;;;;;;;-3.01;80.39;95840.78;4990412;28;20042;-64
2021/04/09 02:39:55;;;;;;;5.82;3.65;;;;;;;-3.12;81.81;95839.44;4990463;28;20058;-65
2021/04/09 02:42:21;;;;;;;5.88;3.33;;;;;;;-3.02;81.68;95839.97;4989255;28;20050;-64
2021/04/09 02:44:47;;;;;;;5.43;3.45;;;;;;;-3.03;81.26;95838.38;4989246;28;20038;-65
2021/04/09 02:47:23;;;;;;;6.47;2.95;;;;;;;-3.13;80.53;95837.84;4989325;28;20484;-64
2021/04/09 02:49:58;;;;;;;8.60;3.35;;;;;;;-3.24;80.50;95840.84;4990397;28;20034;-65
2021/04/09 02:52:25;;;;;;;;;;;;;;;-3.12;80.81;95839.44;4988442;28;20050;-64
2021/04/09 02:54:52;;;;;;;6.57;3.35;;;;;;;-3.17;80.67;95834.03;4987283;28;19926;-65
2021/04/09 02:57:21;;;;;;;5.32;2.97;;;;;;;-3.10;81.11;95827.19;4990315;28;20116;-64
2021/04/09 02:59:49;;;;;;;9.43;3.60;;;;;;;-3.35;81.31;95830.00;4990116;28;20042;-64
2021/04/09 03:02:15;;;;;;;6.50;3.65;;;;;;;-3.33;82.20;95822.88;4989479;28;20496;-64
2021/04/09 03:04:41;;;;;;;6.32;3.35;;;;;;;-3.20;81.92;95826.66;4989024;28;20678;-64
2021/04/09 03:07:10;;;;;;;6.47;3.42;;;;;;;-3.23;80.79;95822.66;4990185;28;20121;-65
2021/04/09 03:09:37;;;;;;;5.78;3.25;;;;;;;-3.26;81.26;95822.19;4989481;28;20042;-64
2021/04/09 03:12:14;;;;;;;6.15;3.40;;;;;;;-3.31;81.30;95820.91;4989596;28;20085;-64
2021/04/09 03:14:42;;;;;;;4.85;3.20;;;;;;;-3.10;81.99;95816.91;4988897;28;20046;-64
2021/04/09 03:17:12;;;;;;;5.15;3.20;;;;;;;-3.21;80.96;95817.31;4987042;28;20050;-64
2021/04/09 03:19:38;;;;;;;6.50;3.25;;;;;;;-3.34;81.98;95821.28;4990110;28;20472;-64
2021/04/09 03:22:11;;;;;;;5.32;2.85;;;;;;;-3.11;82.22;95815.28;4989176;28;20054;-64
2021/04/09 03:24:37;;;;;;;4.75;3.15;;;;;;;-3.22;81.62;95810.56;4986302;28;20069;-65
2021/04/09 03:27:05;;;;;;;6.15;3.13;;;;;;;-3.34;80.37;95812.75;4989363;28;20454;-64
2021/04/09 03:29:30;;;;;;;5.88;2.88;;;;;;;-3.40;80.62;95816.84;4989770;28;20057;-64
2021/04/09 03:31:56;;;;;;;5.28;3.10;;;;;;;-3.35;81.19;95813.72;4988494;28;20047;-64
2021/04/09 03:34:22;;;;;;;6.82;2.90;;;;;;;-3.56;82.08;95816.94;4987983;28;20061;-65
2021/04/09 03:36:47;;;;;;;5.45;3.20;;;;;;;-3.38;82.36;95814.09;4989901;28;20057;-64
2021/04/09 03:39:13;;;;;;;4.20;2.55;;;;;;;-3.44;81.06;95810.44;4989416;28;20042;-64
2021/04/09 03:41:38;;;;;;;8.43;3.55;;;;;;;-3.56;82.23;95806.66;4988003;28;20105;-64
2021/04/09 03:44:04;;;;;;;5.47;3.03;;;;;;;-3.59;81.45;95809.59;4988072;28;20049;-64
2021/04/09 03:46:29;;;;;;;5.55;3.10;;;;;;;-3.61;81.36;95814.13;4985541;28;20043;-64
2021/04/09 03:48:55;;;;;;;5.63;2.75;;;;;;;-3.60;81.42;95808.00;4989380;28;20038;-64
2021/04/09 03:51:21;;;;;;;7.47;3.00;;;;;;;-3.56;82.41;95811.81;4989114;28;20043;-65
2021/04/09 03:53:46;;;;;;;5.35;2.97;;;;;;;-3.51;80.81;95814.66;4988852;28;20046;-65
2021/04/09 03:56:12;;;;;;;5.45;3.10;;;;;;;-3.63;80.83;95805.75;4986521;28;20038;-65
2021/04/09 03:58:37;;;;;;;5.15;2.72;;;;;;;-3.72;81.81;95813.56;4989283;28;20061;-65
2021/04/09 04:01:03;;;;;;;5.72;3.10;;;;;;;-3.72;81.67;95813.56;4989328;28;20401;-64
2021/04/09 04:03:28;;;;;;;4.85;3.03;;;;;;;-3.56;81.83;95806.66;4987448;28;20116;-65
2021/04/09 04:05:54;;;;;;;5.28;2.83;;;;;;;-3.47;80.94;95810.00;4988964;28;20065;-64
2021/04/09 04:08:19;;;;;;;4.97;2.78;;;;;;;-3.41;80.27;95810.06;5004878;28;20042;-65
2021/04/09 04:10:45;;;;;;;5.57;3.42;;;;;;;-3.77;81.12;95808.09;4989219;28;20042;-65
2021/04/09 04:13:10;;;;;;;7.18;2.83;;;;;;;-3.79;81.43;95799.78;4987402;28;20516;-65
2021/04/09 04:15:36;;;;;;;6.13;2.65;;;;;;;-3.68;81.32;95804.53;4988219;28;20042;-64
2021/04/09 04:18:01;;;;;;;6.57;2.85;;;;;;;-3.70;81.46;95811.59;5004632;28;20118;-64
2021/04/09 04:20:27;;;;;;;6.43;3.00;;;;;;;-3.70;80.54;95806.44;4989016;28;20046;-64
2021/04/09 04:22:53;;;;;;;4.63;2.97;;;;;;;-3.96;81.41;95800.88;4988156;28;20065;-63
2021/04/09 04:25:18;;;;;;;6.03;3.03;;;;;;;-3.86;82.05;95804.00;4985589;28;20393;-64
2021/04/09 04:27:44;;;;;;;5.00;2.80;;;;;;;-3.72;81.45;95798.13;4989052;28;20046;-64
2021/04/09 04:30:10;;;;;;;5.35;2.80;;;;;;;-3.74;80.70;95792.34;4989054;28;20097;-65
2021/04/09 04:32:35;;;;;;;6.63;2.90;;;;;;;-4.00;81.61;95798.63;4986036;28;20043;-64
2021/04/09 04:35:01;;;;;;;6.57;3.35;;;;;;;-3.82;81.85;95797.56;5003575;28;20050;-64
2021/04/09 04:37:27;;;;;;;6.18;2.67;;;;;;;-3.79;81.75;95792.06;4988767;28;20412;-64
2021/04/09 04:39:52;;;;;;;4.22;2.80;;;;;;;-3.68;81.56;95793.41;4989134;28;20042;-64
2021/04/09 04:42:18;;;;;;;3.88;2.40;;;;;;;-3.68;81.17;95799.38;4986981;28;20043;-64
2021/04/09 04:44:43;;;;;;;5.40;2.83;;;;;;;-3.60;81.65;95800.28;4988396;28;20085;-64
2021/04/09 04:47:09;;;;;;;4.95;2.90;;;;;;;-3.66;81.47;95794.06;4986563;28;20045;-65
2021/04/09 04:49:34;;;;;;;4.68;2.72;;;;;;;-3.69;81.17;95802.91;4988522;28;20043;-64
2021/04/09 04:52:00;;;;;;;8.50;3.10;;;;;;;-3.70;81.19;95790.22;5004055;28;20520;-64
2021/04/09 04:54:25;;;;;;;6.30;2.80;;;;;;;-3.64;80.23;95804.16;4986714;28;20417;-65
2021/04/09 04:56:51;;;;;;;4.70;2.70;;;;;;;-3.60;81.61;95795.94;4992904;28;20054;-64
2021/04/09 04:59:17;;;;;;;5.57;2.67;;;;;;;-3.54;81.97;95804.72;4992754;28;20050;-64
2021/04/09 05:01:42;;;;;;;4.97;2.63;;;;;;;-3.58;80.44;95788.03;4992138;28;20046;-64
2021/04/09 05:04:08;;;;;;;7.97;2.60;;;;;;;-3.62;80.42;95797.06;4987959;28;20057;-63
2021/04/09 05:06:34;;;;;;;5.40;3.20;;;;;;;-3.52;80.61;95793.28;4991911;28;20071;-64
2021/04/09 05:08:59;;;;;;;5.30;2.60;;;;;;;-3.53;80.87;95801.19;4992491;28;20064;-64
2021/04/09 05:11:25;;;;;;;4.07;2.42;;;;;;;-3.46;79.96;95799.53;4988646;28;20123;-64
2021/04/09 05:13:51;;;;;;;7.57;2.45;;;;;;;-3.45;80.58;95803.69;4991506;28;20412;-64
2021/04/09 05:16:16;;;;;;;5.22;2.50;;;;;;;-3.36;80.24;95807.78;4988594;28;20133;-64
2021/04/09 05:18:42;;;;;;;5.85;2.60;;;;;;;-3.33;79.70;95802.28;4992455;28;20582;-64
2021/04/09 05:21:07;;;;;;;7.13;2.75;;;;;;;-3.29;81.12;95801.94;4992022;28;20073;-64
2021/04/09 05:23:33;;;;;;;6.25;2.80;;;;;;;-3.21;80.04;95807.03;4989636;28;20408;-64
2021/04/09 05:25:59;;;;;;;8.48;2.90;;;;;;;-3.16;81.89;95808.09;4990686;28;20527;-64
2021/04/09 05:28:24;;;;;;;5.18;2.90;;;;;;;-3.08;80.32;95807.22;4991953;28;20046;-64
2021/04/09 05:30:50;;;;;;;4.82;3.08;;;;;;;-3.04;79.11;95800.72;4988728;28;20431;-64
2021/04/09 05:33:15;;;;;;;5.82;2.70;;;;;;;-2.99;80.26;95800.19;4986751;28;20062;-64
2021/04/09 05:35:41;;;;;;;6.45;3.03;;;;;;;-3.12;79.12;95800.81;4991476;28;20550;-64
2021/04/09 05:38:07;;;;;;;10.27;3.88;;;;;;;-3.19;79.43;95794.75;4991774;28;20046;-64
2021/04/09 05:40:32;;;;;;;9.23;3.30;;;;;;;-3.20;80.63;95800.91;4988883;28;20610;-64
2021/04/09 05:43:04;;;;;;;7.63;2.83;;;;;;;-3.12;79.28;95803.38;4991030;28;20042;-64
2021/04/09 05:45:30;;;;;;;8.63;3.05;;;;;;;-2.97;80.07;95796.47;4989908;28;20042;-64
2021/04/09 05:48:01;;;;;;;7.30;3.20;;;;;;;-2.95;80.89;95798.88;4991594;28;20507;-64
2021/04/09 05:50:27;;;;;;;5.85;2.95;;;;;;;-2.92;79.55;95792.56;4991566;28;20053;-64
2021/04/09 05:52:53;;;;;;;6.38;2.60;;;;;;;-2.90;79.66;95790.59;4990112;28;20813;-64
2021/04/09 05:55:18;;;;;;;18.85;3.33;;;;;;;-2.79;79.22;95792.75;4988216;28;20046;-64
2021/04/09 05:57:44;;;;;;;16.20;3.20;;;;;;;-2.78;79.43;95784.03;4992018;28;20104;-64
2021/04/09 06:00:12;;;;;;;7.60;3.38;;;;;;;-2.66;80.47;95787.78;4991008;28;20046;-64
2021/04/09 06:02:37;;;;;;;16.02;3.30;;;;;;;-2.60;80.29;95791.41;4989737;28;20035;-64
2021/04/09 06:05:04;;;;;;;8.30;3.33;;;;;;;-2.50;81.35;95791.94;4989120;28;20046;-64
2021/04/09 06:07:30;;;;;;;7.68;3.05;;;;;;;-2.40;81.47;95790.84;4990060;28;20038;-64
2021/04/09 06:09:55;;;;;;;8.80;3.45;;;;;;;-2.40;81.65;95796.78;4991101;28;20042;-64
2021/04/09 06:12:21;;;;;;;5.65;2.90;;;;;;;-2.22;81.52;95793.03;4988825;28;20062;-64
2021/04/09 06:14:47;;;;;;;8.43;3.35;;;;;;;-2.20;81.49;95793.63;4990890;28;20053;-64
2021/04/09 06:17:12;;;;;;;12.63;3.40;;;;;;;-2.22;82.28;95790.47;4988277;28;20047;-64
2021/04/09 06:19:38;;;;;;;6.05;3.05;;;;;;;-2.13;81.71;95791.94;4991021;28;20077;-64
2021/04/09 06:22:04;;;;;;;5.18;2.88;;;;;;;-2.00;82.02;95780.94;4990648;28;20519;-64
2021/04/09 06:24:29;;;;;;;7.15;2.75;;;;;;;-2.04;82.14;95777.13;4988742;28;20118;-64
2021/04/09 06:26:55;;;;;;;8.25;3.30;;;;;;;-2.02;82.53;95778.56;4990318;28;20038;-64
2021/04/09 06:29:20;;;;;;;9.60;3.03;;;;;;;-1.94;81.65;95780.22;4991105;28;20042;-65
2021/04/09 06:31:46;;;;;;;6.55;2.75;;;;;;;-1.82;82.09;95783.13;4990683;28;20042;-64
2021/04/09 06:34:11;;;;;;;8.98;3.03;;;;;;;-1.78;81.81;95779.16;4987977;28;20054;-65
2021/04/09 06:36:37;;;;;;;8.80;3.10;;;;;;;-1.75;81.72;95778.81;4989848;28;20113;-65
2021/04/09 06:39:04;;;;;;;5.40;2.78;;;;;;;-1.64;81.88;95780.91;4990496;28;21239;-66
2021/04/09 06:41:29;;;;;;;5.43;2.65;;;;;;;-1.46;80.84;95777.06;4987297;28;20042;-65
2021/04/09 06:43:58;;;;;;;8.57;2.65;;;;;;;-1.35;79.11;95778.31;4990193;28;20563;-69
2021/04/09 06:46:24;;;;;;;4.45;1.63;;;;;;;-0.87;73.17;95776.66;4987248;28;20300;-70
2021/04/09 06:48:50;;;;;;;6.28;1.83;;;;;;;0.22;64.77;95768.28;4989091;28;20091;-70
2021/04/09 06:51:16;;;;;;;4.82;1.40;;;;;;;0.59;65.75;95768.69;4991125;28;20484;-70
2021/04/09 06:53:46;;;;;;;2.60;1.50;;;;;;;1.47;57.51;95760.53;4988746;28;20104;-68
2021/04/09 06:56:12;;;;;;;2.42;1.50;;;;;;;2.62;48.98;95763.28;4988742;28;20126;-67
2021/04/09 06:58:39;;;;;;;2.47;1.48;;;;;;;2.32;56.60;95761.31;4988775;28;20050;-67
2021/04/09 07:01:05;;;;;;;4.15;1.30;;;;;;;2.27;55.61;95766.31;4987415;28;20053;-67
2021/04/09 07:03:33;;;;;;;2.58;1.30;;;;;;;2.40;55.69;95758.47;5004162;28;20042;-66
2021/04/09 07:05:58;;;;;;;1.67;1.35;;;;;;;2.31;56.04;95764.91;4989877;28;20036;-66
2021/04/09 07:08:24;;;;;;;2.97;1.60;;;;;;;3.04;48.69;95760.91;4990455;28;20100;-66
2021/04/09 07:10:53;;;;;;;3.25;1.40;;;;;;;3.50;46.27;95754.41;4988721;28;20416;-66
2021/04/09 07:13:18;;;;;;;1.65;1.30;;;;;;;3.18;48.67;95754.56;4988410;28;20496;-66
2021/04/09 07:15:45;;;;;;;4.60;1.48;;;;;;;3.40;50.23;95757.50;4989137;28;20053;-66
2021/04/09 07:18:15;;;;;;;2.47;1.30;;;;;;;4.04;42.67;95751.13;4988956;28;20046;-65
2021/04/09 07:20:41;;;;;;;3.10;1.42;;;;;;;3.45;50.37;95754.28;4986641;28;20042;-67
2021/04/09 07:23:09;;;;;;;3.38;1.50;;;;;;;3.94;43.74;95756.88;4987555;28;20468;-68
2021/04/09 07:25:39;;;;;;;2.53;1.35;;;;;;;4.10;43.61;95750.25;4988124;28;20046;-68
2021/04/09 07:28:07;;;;;;;4.03;1.40;;;;;;;5.03;38.86;95743.56;4989554;28;20038;-68
2021/04/09 07:30:33;;;;;;;2.88;1.35;;;;;;;5.05;39.83;95740.72;4986560;28;20038;-68
2021/04/09 07:33:04;;;;;;;3.75;1.38;;;;;;;4.85;39.76;95741.06;4988868;28;20472;-69
2021/04/09 07:35:42;;;;;;;4.53;1.75;;;;;;;4.82;44.46;95744.13;5003045;28;20069;-69
2021/04/09 07:38:07;;;;;;;1.85;1.30;;;;;;;4.62;42.35;95742.63;4987287;28;20045;-69
2021/04/09 07:40:33;;;;;;;3.00;1.40;;;;;;;4.99;41.64;95736.41;4989125;28;20451;-69
2021/04/09 07:43:00;;;;;;;5.00;1.45;;;;;;;5.48;36.47;95738.72;4986181;28;20038;-69
2021/04/09 07:45:30;;;;;;;8.30;1.60;;;;;;;5.89;35.24;95734.28;4987481;28;20038;-69
2021/04/09 07:48:05;;;;;;;1.30;1.20;;;;;;;5.82;38.19;95734.41;4988920;28;20512;-69
2021/04/09 07:50:31;;;;;;;2.92;1.30;;;;;;;6.17;35.61;95735.31;4988387;28;20488;-68
2021/04/09 07:52:57;;;;;;;2.05;1.30;;;;;;;6.26;34.67;95739.13;4986087;28;20046;-68
2021/04/09 07:55:24;;;;;;;3.55;1.60;;;;;;;6.49;35.26;95727.72;4988739;28;20507;-69
2021/04/09 07:57:51;;;;;;;2.90;1.48;;;;;;;6.19;37.63;95736.69;4988648;28;20046;-69
2021/04/09 08:00:23;;;;;;;3.05;1.52;;;;;;;6.62;36.04;95739.69;4988646;28;20070;-69
2021/04/09 08:02:52;;;;;;;2.45;1.35;;;;;;;7.01;32.76;95738.94;5002693;28;20034;-68
2021/04/09 08:05:19;;;;;;;2.97;1.60;;;;;;;7.27;31.18;95738.28;4987343;28;20042;-69
2021/04/09 08:07:45;;;;;;;2.72;1.50;;;;;;;7.15;32.66;95734.16;4985030;28;20042;-69
2021/04/09 08:10:15;;;;;;;2.33;1.33;;;;;;;7.09;32.20;95728.84;4986533;28;20093;-69
2021/04/09 08:12:42;;;;;;;2.08;1.42;;;;;;;7.36;31.58;95722.94;4984849;28;20242;-69
2021/04/09 08:15:16;;;;;;;2.33;1.33;;;;;;;6.91;33.02;95726.50;4998930;28;20172;-69
2021/04/09 08:17:43;;;;;;;1.90;1.40;;;;;;;7.29;30.95;95719.69;4985242;28;20044;-68
2021/04/09 08:20:14;;;;;;;2.38;1.60;;;;;;;7.60;30.46;95720.84;4983107;28;20424;-68
2021/04/09 08:22:41;;;;;;;5.28;1.52;;;;;;;7.59;33.52;95718.50;4984528;28;20042;-69
2021/04/09 08:25:08;;;;;;;3.30;1.58;;;;;;;7.97;29.31;95719.41;4987636;28;20054;-69
2021/04/09 08:27:35;;;;;;;2.75;1.58;;;;;;;8.32;28.64;95720.78;4986689;28;20038;-69
2021/04/09 08:30:03;;;;;;;4.68;1.50;;;;;;;8.30;31.34;95721.03;4990561;28;20064;-69
2021/04/09 08:32:30;;;;;;;4.82;1.50;;;;;;;8.34;29.46;95729.19;4988747;28;20039;-69
2021/04/09 08:34:57;;;;;;;4.85;1.60;;;;;;;8.41;28.06;95721.91;5006762;28;20097;-67
2021/04/09 08:37:23;;;;;;;4.95;1.73;;;;;;;8.32;29.32;95726.03;4991511;28;20061;-70
2021/04/09 08:39:50;;;;;;;3.00;1.63;;;;;;;8.25;30.25;95720.19;4987479;28;20492;-69
2021/04/09 08:42:16;;;;;;;4.60;1.65;;;;;;;8.75;27.76;95708.53;4987478;28;20082;-69
2021/04/09 08:44:43;;;;;;;6.55;1.67;;;;;;;8.47;28.83;95717.50;4991033;28;20073;-68
2021/04/09 08:47:11;;;;;;;4.20;1.52;;;;;;;8.54;29.02;95719.94;4987730;28;20070;-69
2021/04/09 08:49:37;;;;;;;6.78;1.80;;;;;;;8.68;28.41;95707.97;4990445;28;20042;-68
2021/04/09 08:52:05;;;;;;;2.78;1.58;;;;;;;8.71;30.67;95702.22;4981966;28;20104;-68
2021/04/09 08:54:31;;;;;;;4.30;1.83;;;;;;;8.92;29.21;95707.59;4988747;28;20061;-68
2021/04/09 08:57:33;;;;;;;4.32;1.60;;;;;;;8.79;29.51;95704.38;4992115;28;20312;-68
2021/04/09 09:00:09;;;;;;;2.55;1.75;;;;;;;9.11;29.16;95700.09;4992059;28;20121;-66
2021/04/09 09:02:40;;;;;;;2.80;1.40;;;;;;;9.03;28.97;95701.34;4986201;28;20523;-66
2021/04/09 09:05:09;;;;;;;2.78;1.55;;;;;;;9.22;26.74;95703.56;4987032;28;20042;-66
2021/04/09 09:07:53;;;;;;;3.38;1.80;;;;;;;9.42;27.62;95703.63;4989228;28;20069;-66
2021/04/09 09:10:21;;;;;;;3.05;1.80;;;;;;;9.52;27.28;95708.97;4991654;28;20042;-66
2021/04/09 09:13:08;;;;;;;3.67;1.95;;;;;;;9.68;27.76;95703.72;4989737;28;20551;-66
2021/04/09 09:21:10;;;;;;;4.32;1.58;;;;;;;9.57;27.82;95702.13;4989442;28;19957;-66
2021/04/09 09:24:05;;;;;;;3.70;1.80;;;;;;;10.10;26.92;95688.84;4990254;28;20034;-66
2021/04/09 09:26:38;;;;;;;3.63;1.60;;;;;;;9.97;26.37;95690.13;4989723;28;20066;-66
2021/04/09 09:29:25;;;;;;;3.23;1.90;;;;;;;10.19;25.85;95682.78;4990726;28;20054;-66
2021/04/09 09:32:05;;;;;;;7.57;2.15;;;;;;;10.15;25.19;95681.75;4991847;28;20073;-66
2021/04/09 09:34:32;;;;;;;3.85;1.80;;;;;;;10.29;23.55;95675.97;4987135;28;20497;-66
2021/04/09 09:37:05;;;;;;;3.55;1.90;;;;;;;10.19;24.93;95674.13;5005075;28;20038;-66
2021/04/09 09:39:48;;;;;;;3.17;1.85;;;;;;;10.61;24.31;95677.56;4991748;28;20050;-66
2021/04/09 09:42:19;;;;;;;4.75;1.83;;;;;;;10.46;26.98;95680.97;4986405;28;20158;-66
2021/04/09 09:45:05;;;;;;;3.90;1.92;;;;;;;10.55;27.05;95680.19;4989142;28;20046;-66
2021/04/09 09:47:37;;;;;;;3.35;1.75;;;;;;;10.00;29.10;95673.84;4990336;28;20046;-66
2021/04/09 09:52:53;;;;;;;5.15;2.03;;;;;;;10.88;25.13;95662.25;4989833;28;20489;-66
2021/04/09 09:55:31;;;;;;;4.03;1.80;;;;;;;11.46;24.93;95661.00;4988462;28;20042;-66
2021/04/09 09:58:02;;;;;;;4.78;1.60;;;;;;;11.15;25.36;95655.06;4990692;28;20034;-66
2021/04/09 10:00:32;;;;;;;2.35;1.67;;;;;;;10.77;28.58;95654.66;4989503;28;20049;-66
2021/04/09 10:03:14;;;;;;;3.65;1.65;;;;;;;10.80;26.53;95644.34;4987844;28;20046;-67
2021/04/09 10:05:45;;;;;;;3.45;1.75;;;;;;;11.41;23.84;95642.59;4989538;28;20093;-68
2021/04/09 10:08:12;;;;;;;2.35;1.70;;;;;;;11.36;23.28;95642.59;4989108;28;20538;-68
2021/04/09 10:10:41;;;;;;;2.97;1.70;;;;;;;11.46;24.68;95637.28;4990103;28;20039;-68
2021/04/09 10:13:23;;;;;;;3.60;1.88;;;;;;;11.67;24.76;95629.28;4987665;28;20050;-68
2021/04/09 10:15:53;;;;;;;3.45;1.90;;;;;;;11.40;23.84;95627.81;4990429;28;20413;-68
2021/04/09 10:18:19;;;;;;;3.97;1.80;;;;;;;11.51;21.84;95616.19;5004398;28;20447;-68
2021/04/09 10:20:47;;;;;;;3.40;1.70;;;;;;;11.68;23.89;95617.66;4990293;28;20092;-68
2021/04/09 10:23:14;;;;;;;4.03;1.98;;;;;;;11.62;22.88;95606.34;4990362;28;20053;-68
2021/04/09 10:25:40;;;;;;;3.30;1.70;;;;;;;11.60;25.87;95609.25;4987439;28;20034;-68
2021/04/09 10:28:12;;;;;;;3.40;1.70;;;;;;;11.99;23.13;95606.94;4990589;28;20053;-68
2021/04/09 10:30:40;;;;;;;4.05;1.70;;;;;;;12.23;24.72;95599.88;4987827;28;20042;-68
2021/04/09 10:33:05;;;;;;;3.42;1.90;;;;;;;12.71;22.14;95599.16;4989645;28;20038;-67
2021/04/09 10:35:32;;;;;;;5.32;1.85;;;;;;;13.28;22.62;95596.66;4987831;28;20493;-67
2021/04/09 10:38:15;;;;;;;3.55;1.67;;;;;;;13.34;21.57;95595.53;4990263;28;20049;-68
2021/04/09 10:40:57;;;;;;;2.58;1.63;;;;;;;13.47;21.47;95593.28;4990741;28;20397;-67
2021/04/09 10:43:31;;;;;;;2.05;1.52;;;;;;;13.97;20.55;95585.66;4988682;28;20443;-68
2021/04/09 10:46:05;;;;;;;3.43;1.70;;;;;;;13.36;24.99;95581.25;4989057;28;20053;-69
2021/04/09 10:48:31;;;;;;;4.88;1.90;;;;;;;14.32;20.69;95585.38;4989455;28;20042;-68
2021/04/09 10:50:57;;;;;;;4.20;1.77;;;;;;;14.90;21.45;95584.88;5003445;28;20085;-68
2021/04/09 10:53:23;;;;;;;3.83;1.77;;;;;;;15.04;20.67;95574.28;4989836;28;20038;-68
2021/04/09 10:55:48;;;;;;;3.00;1.70;;;;;;;14.15;19.84;95575.31;4985435;28;20567;-69
2021/04/09 10:58:16;;;;;;;3.97;1.88;;;;;;;14.50;21.04;95575.81;4989847;28;20054;-68
2021/04/09 11:00:42;;;;;;;2.00;1.50;;;;;;;15.26;20.99;95570.13;4985385;28;20077;-68
2021/04/09 11:03:08;;;;;;;2.50;1.63;;;;;;;15.32;22.68;95574.22;4988905;28;20492;-69
2021/04/09 11:05:34;;;;;;;4.15;1.77;;;;;;;14.51;21.43;95561.47;4989056;28;20037;-69
2021/04/09 11:08:00;;;;;;;4.03;1.90;;;;;;;15.70;19.92;95555.38;4988834;28;20042;-69
2021/04/09 11:10:33;;;;;;;4.85;2.10;;;;;;;16.04;20.39;95551.41;4988113;28;20125;-69
2021/04/09 11:12:59;;;;;;;5.40;2.10;;;;;;;16.09;21.02;95548.63;4983828;28;20058;-69
2021/04/09 11:15:25;;;;;;;2.85;1.58;;;;;;;16.40;20.62;95547.84;4986663;28;20535;-69
2021/04/09 11:17:58;;;;;;;2.60;1.70;;;;;;;16.18;21.63;95545.25;5005472;28;20054;-68
2021/04/09 11:20:26;;;;;;;3.47;1.73;;;;;;;16.48;20.44;95549.00;4989193;28;20053;-69
2021/04/09 11:23:06;;;;;;;2.53;1.80;;;;;;;16.55;20.25;95543.22;4989063;28;20065;-69
2021/04/09 11:25:40;;;;;;;2.90;1.80;;;;;;;16.82;19.42;95536.91;4986313;28;20088;-69
2021/04/09 11:28:07;;;;;;;2.90;1.80;;;;;;;16.77;19.53;95540.50;4989683;28;20044;-69
2021/04/09 11:30:35;;;;;;;2.88;1.73;;;;;;;17.00;18.57;95532.47;4985605;28;20065;-69
2021/04/09 11:33:02;;;;;;;4.15;1.80;;;;;;;16.10;18.72;95523.66;4986170;28;20038;-69
2021/04/09 11:35:36;;;;;;;4.53;1.90;;;;;;;15.81;18.49;95520.66;4985646;28;20035;-69
2021/04/09 11:38:06;;;;;;;4.30;1.80;;;;;;;15.95;19.78;95521.38;4986670;28;20118;-69
2021/04/09 11:40:40;;;;;;;2.38;1.73;;;;;;;16.29;19.03;95520.00;4988993;28;20050;-70
2021/04/09 11:43:06;;;;;;;2.10;1.50;;;;;;;15.78;19.68;95516.72;4987454;28;20049;-69
2021/04/09 11:45:41;;;;;;;3.08;1.80;;;;;;;15.51;19.10;95513.06;4987594;28;20287;-69
2021/04/09 11:48:29;;;;;;;3.40;1.77;;;;;;;15.44;20.18;95501.34;4988183;28;20053;-69